createdAt,value
2022-09-15T00:02:25.030Z,21.12
2022-09-15T00:04:55.842Z,21.13
2022-09-15T00:07:31.695Z,21.14
2022-09-15T00:10:10.662Z,21.10
2022-09-15T00:13:01.528Z,21.11
2022-09-15T00:15:35.880Z,21.14
2022-09-15T00:18:12.924Z,21.20
2022-09-15T00:20:47.689Z,21.14
2022-09-15T00:23:21.860Z,21.14
2022-09-15T00:25:53.564Z,21.14
2022-09-15T00:28:23.025Z,21.16
2022-09-15T00:30:57.714Z,21.10
2022-09-15T00:33:26.027Z,21.05
2022-09-15T00:35:56.968Z,21.06
2022-09-15T00:38:39.780Z,21.07
2022-09-15T00:41:38.983Z,21.10
2022-09-15T00:45:08.288Z,21.09
2022-09-15T00:47:38.952Z,21.01
2022-09-15T00:50:38.758Z,20.98
2022-09-15T00:53:16.428Z,20.96
2022-09-15T00:55:51.605Z,20.95
2022-09-15T00:58:29.797Z,20.93
2022-09-15T01:01:08.350Z,20.92
2022-09-15T01:03:40.149Z,20.95
2022-09-15T01:06:51.257Z,20.94
2022-09-15T01:09:58.722Z,20.87
2022-09-15T01:12:37.339Z,20.85
2022-09-15T01:15:06.969Z,20.77
2022-09-15T01:18:23.681Z,20.74
2022-09-15T01:21:48.152Z,20.78
2022-09-15T01:25:09.601Z,20.83
2022-09-15T01:28:22.425Z,20.78
2022-09-15T01:31:05.923Z,20.78
2022-09-15T01:34:21.916Z,20.78
2022-09-15T01:37:07.209Z,20.87
2022-09-15T01:40:08.383Z,20.87
2022-09-15T01:42:58.012Z,20.89
2022-09-15T01:45:44.847Z,20.91
2022-09-15T01:48:26.727Z,20.90
2022-09-15T01:51:08.604Z,20.90
2022-09-15T01:53:39.855Z,20.92
2022-09-15T01:56:35.269Z,20.93
2022-09-15T01:59:12.452Z,20.94
2022-09-15T02:01:57.540Z,20.91
2022-09-15T02:04:54.370Z,20.90
2022-09-15T02:08:31.453Z,20.94
2022-09-15T02:12:01.187Z,21.00
2022-09-15T02:15:09.893Z,21.07
2022-09-15T02:17:54.488Z,21.09
2022-09-15T02:21:23.550Z,21.09
2022-09-15T02:25:41.034Z,21.05
2022-09-15T02:28:18.257Z,21.06
2022-09-15T02:30:59.926Z,21.08
2022-09-15T02:33:35.693Z,21.08
2022-09-15T02:36:13.956Z,21.10
2022-09-15T02:39:37.664Z,21.07
2022-09-15T02:42:11.093Z,21.02
2022-09-15T02:45:10.304Z,21.01
2022-09-15T02:47:41.067Z,21.03
2022-09-15T02:50:56.406Z,21.04
2022-09-15T02:54:16.600Z,21.02
2022-09-15T02:57:13.543Z,21.03
2022-09-15T03:00:17.763Z,21.03
2022-09-15T03:03:07.238Z,21.01
2022-09-15T03:05:54.657Z,21.02
2022-09-15T03:09:02.257Z,20.99
2022-09-15T03:11:48.861Z,20.96
2022-09-15T03:14:20.413Z,20.95
2022-09-15T03:17:11.830Z,20.92
2022-09-15T03:19:56.695Z,20.90
2022-09-15T03:23:14.028Z,20.88
2022-09-15T03:26:46.254Z,20.80
2022-09-15T03:29:20.002Z,20.78
2022-09-15T03:31:52.994Z,20.78
2022-09-15T03:34:36.518Z,20.77
2022-09-15T03:37:07.762Z,20.77
2022-09-15T03:39:51.021Z,20.79
2022-09-15T03:42:22.028Z,20.78
2022-09-15T03:44:53.785Z,20.77
2022-09-15T03:47:44.178Z,20.75
2022-09-15T03:50:15.629Z,20.76
2022-09-15T03:52:46.941Z,20.81
2022-09-15T03:56:00.930Z,20.84
2022-09-15T03:58:42.404Z,20.87
2022-09-15T04:01:16.230Z,20.89
2022-09-15T04:03:52.928Z,20.88
2022-09-15T04:06:25.460Z,20.88
2022-09-15T04:09:02.404Z,20.90
2022-09-15T04:11:39.827Z,20.94
2022-09-15T04:14:11.073Z,21.00
2022-09-15T04:16:42.099Z,21.06
2022-09-15T04:19:21.552Z,21.09
2022-09-15T04:21:54.944Z,21.11
2022-09-15T04:24:29.878Z,21.17
2022-09-15T04:27:00.813Z,21.25
2022-09-15T04:29:29.753Z,21.28
2022-09-15T04:32:01.191Z,21.30
2022-09-15T04:34:39.281Z,21.24
2022-09-15T04:37:12.756Z,21.16
2022-09-15T04:39:44.750Z,21.10
2022-09-15T04:42:15.964Z,21.05
2022-09-15T04:44:52.163Z,21.05
2022-09-15T04:47:34.838Z,21.06
2022-09-15T04:50:12.592Z,21.09
2022-09-15T04:52:45.629Z,21.18
2022-09-15T04:55:27.212Z,21.17
2022-09-15T04:57:58.353Z,21.17
2022-09-15T05:00:29.803Z,21.15
2022-09-15T05:03:03.324Z,21.12
2022-09-15T05:05:40.586Z,21.13
2022-09-15T05:08:17.770Z,21.14
2022-09-15T05:11:02.736Z,21.15
2022-09-15T05:13:59.276Z,21.20
2022-09-15T05:16:34.266Z,21.29
2022-09-15T05:19:05.831Z,21.28
2022-09-15T05:21:34.443Z,21.26
2022-09-15T05:24:42.431Z,21.28
2022-09-15T05:27:15.844Z,21.31
2022-09-15T05:29:44.326Z,21.36
2022-09-15T05:32:12.604Z,21.43
2022-09-15T05:34:48.761Z,21.48
2022-09-15T05:37:20.211Z,21.52
2022-09-15T05:40:22.354Z,21.63
2022-09-15T05:43:03.456Z,21.75
2022-09-15T05:45:37.851Z,21.71
2022-09-15T05:48:16.801Z,21.64
2022-09-15T05:50:59.081Z,21.61
2022-09-15T05:53:31.272Z,21.58
2022-09-15T05:56:26.656Z,21.51
2022-09-15T05:59:28.993Z,21.49
2022-09-15T06:02:06.516Z,21.50
2022-09-15T06:04:42.811Z,21.53
2022-09-15T06:07:16.924Z,21.56
2022-09-15T06:09:50.936Z,21.61
2022-09-15T06:12:28.888Z,21.68
2022-09-15T06:15:05.301Z,21.67
2022-09-15T06:17:39.786Z,21.68
2022-09-15T06:20:41.544Z,21.65
2022-09-15T06:23:55.448Z,21.68
2022-09-15T06:26:51.863Z,21.73
2022-09-15T06:29:41.484Z,21.73
2022-09-15T06:32:22.519Z,21.75
2022-09-15T06:34:59.624Z,21.77
2022-09-15T06:38:11.799Z,21.78
2022-09-15T06:41:03.319Z,21.76
2022-09-15T06:43:37.850Z,21.78
2022-09-15T06:46:16.961Z,21.79
2022-09-15T06:48:56.050Z,21.79
2022-09-15T06:51:45.676Z,21.78
2022-09-15T06:55:00.340Z,21.76
2022-09-15T06:58:19.527Z,21.63
2022-09-15T07:01:29.780Z,21.63
2022-09-15T07:05:05.013Z,21.57
2022-09-15T07:08:00.489Z,21.65
2022-09-15T07:10:49.280Z,21.71
2022-09-15T07:13:31.893Z,21.78
2022-09-15T07:16:28.558Z,21.84
2022-09-15T07:19:51.489Z,21.87
2022-09-15T07:22:45.366Z,21.83
2022-09-15T07:25:34.733Z,21.80
2022-09-15T07:28:17.653Z,21.78
2022-09-15T07:31:14.034Z,21.60
2022-09-15T07:33:55.754Z,21.40
2022-09-15T07:36:36.237Z,21.33
2022-09-15T07:39:07.610Z,21.31
2022-09-15T07:41:39.343Z,21.31
2022-09-15T07:44:13.457Z,21.29
2022-09-15T07:46:47.466Z,21.36
2022-09-15T07:49:21.681Z,21.38
2022-09-15T07:51:50.262Z,21.37
2022-09-15T07:54:22.979Z,21.28
2022-09-15T07:56:56.544Z,21.36
2022-09-15T07:59:30.344Z,21.39
2022-09-15T08:02:04.160Z,21.35
2022-09-15T08:04:40.006Z,21.45
2022-09-15T08:07:17.011Z,21.50
2022-09-15T08:09:51.504Z,21.35
2022-09-15T08:12:33.399Z,21.27
2022-09-15T08:15:43.397Z,21.13
2022-09-15T08:18:22.993Z,21.10
2022-09-15T08:20:56.593Z,21.20
2022-09-15T08:23:29.522Z,21.22
2022-09-15T08:26:14.091Z,20.90
2022-09-15T08:29:03.402Z,20.78
2022-09-15T08:32:02.093Z,20.67
2022-09-15T08:34:35.588Z,20.55
2022-09-15T08:37:32.847Z,20.57
2022-09-15T08:40:23.384Z,20.67
2022-09-15T08:42:59.439Z,20.37
2022-09-15T08:45:50.201Z,20.04
2022-09-15T08:48:30.252Z,20.23
2022-09-15T08:51:18.724Z,20.15
2022-09-15T08:53:59.878Z,20.35
2022-09-15T08:56:28.353Z,20.50
2022-09-15T08:59:29.600Z,20.67
2022-09-15T09:03:11.681Z,20.82
2022-09-15T09:05:57.703Z,21.15
2022-09-15T09:09:10.519Z,21.24
2022-09-15T09:12:37.577Z,21.09
2022-09-15T09:16:05.476Z,20.90
2022-09-15T09:19:53.393Z,20.87
2022-09-15T09:22:36.105Z,20.83
2022-09-15T09:25:26.173Z,20.76
2022-09-15T09:29:10.558Z,20.80
2022-09-15T09:31:38.927Z,20.73
2022-09-15T09:35:15.157Z,20.48
2022-09-15T09:37:46.884Z,20.54
2022-09-15T09:40:32.967Z,20.64
2022-09-15T09:43:27.999Z,20.77
2022-09-15T09:46:30.256Z,20.85
2022-09-15T09:49:25.558Z,20.94
2022-09-15T09:52:45.925Z,20.88
2022-09-15T09:56:01.304Z,21.00
2022-09-15T09:59:14.021Z,21.19
2022-09-15T10:02:23.238Z,21.36
2022-09-15T10:05:45.291Z,21.60
2022-09-15T10:08:22.676Z,21.78
2022-09-15T10:11:31.101Z,21.90
2022-09-15T10:14:55.570Z,22.36
2022-09-15T10:17:41.176Z,22.87
2022-09-15T10:20:32.553Z,23.12
2022-09-15T10:23:44.883Z,23.23
2022-09-15T10:27:38.066Z,23.06
2022-09-15T10:31:19.030Z,22.92
2022-09-15T10:34:06.772Z,23.05
2022-09-15T10:37:17.466Z,23.17
2022-09-15T10:40:58.633Z,22.93
2022-09-15T10:43:53.462Z,22.69
2022-09-15T10:48:06.151Z,22.52
2022-09-15T10:51:46.616Z,22.37
2022-09-15T10:55:24.814Z,22.42
2022-09-15T10:59:44.049Z,22.30
2022-09-15T11:03:48.023Z,22.34
2022-09-15T11:07:59.115Z,22.46
2022-09-15T11:11:04.556Z,22.18
2022-09-15T11:14:27.614Z,21.99
2022-09-15T11:17:50.472Z,21.92
2022-09-15T11:21:01.955Z,21.96
2022-09-15T11:24:21.023Z,22.13
2022-09-15T11:27:57.915Z,22.33
2022-09-15T11:30:47.898Z,22.48
2022-09-15T11:33:51.703Z,22.20
2022-09-15T11:37:39.950Z,22.13
2022-09-15T11:40:53.894Z,22.17
2022-09-15T11:44:14.701Z,21.96
2022-09-15T11:47:10.017Z,21.77
2022-09-15T11:50:38.803Z,21.88
2022-09-15T11:54:25.109Z,21.93
2022-09-15T11:57:44.176Z,21.72
2022-09-15T12:00:34.364Z,21.77
2022-09-15T12:03:52.977Z,21.96
2022-09-15T12:07:33.080Z,22.13
2022-09-15T12:10:45.197Z,22.31
2022-09-15T12:13:18.475Z,22.39
2022-09-15T12:15:57.490Z,22.57
2022-09-15T12:18:53.017Z,22.74
2022-09-15T12:21:56.645Z,22.53
2022-09-15T12:25:01.422Z,22.34
2022-09-15T12:28:47.080Z,22.40
2022-09-15T12:31:35.228Z,22.64
2022-09-15T12:34:48.103Z,22.75
2022-09-15T12:38:23.196Z,22.86
2022-09-15T12:41:17.939Z,22.96
2022-09-15T12:44:21.206Z,23.11
2022-09-15T12:47:20.686Z,23.02
2022-09-15T12:50:17.691Z,23.05
2022-09-15T12:53:46.421Z,23.19
2022-09-15T12:56:49.884Z,23.37
2022-09-15T12:59:40.993Z,23.47
2022-09-15T13:03:02.503Z,23.70
2022-09-15T13:06:50.153Z,24.01
2022-09-15T13:10:03.574Z,23.75
2022-09-15T13:13:15.536Z,23.21
2022-09-15T13:16:47.879Z,22.97
2022-09-15T13:20:06.376Z,22.77
2022-09-15T13:22:58.549Z,22.80
2022-09-15T13:25:33.802Z,23.59
2022-09-15T13:28:12.997Z,24.30
2022-09-15T13:31:52.311Z,24.54
2022-09-15T13:35:23.102Z,23.88
2022-09-15T13:39:31.015Z,23.14
2022-09-15T13:42:27.873Z,23.12
2022-09-15T13:46:01.836Z,23.82
2022-09-15T13:48:59.656Z,24.45
2022-09-15T13:52:48.300Z,24.73
2022-09-15T13:56:06.505Z,24.99
2022-09-15T13:59:42.408Z,24.57
2022-09-15T14:02:16.383Z,23.60
2022-09-15T14:04:52.576Z,23.03
2022-09-15T14:07:32.730Z,22.61
2022-09-15T14:10:08.524Z,22.69
2022-09-15T14:12:42.417Z,23.40
2022-09-15T14:16:15.061Z,23.97
2022-09-15T14:19:41.207Z,24.42
2022-09-15T14:22:59.776Z,24.53
2022-09-15T14:25:48.721Z,24.32
2022-09-15T14:28:33.694Z,23.58
2022-09-15T14:31:53.104Z,23.03
2022-09-15T14:34:56.356Z,22.73
2022-09-15T14:38:24.333Z,23.31
2022-09-15T14:41:31.932Z,23.96
2022-09-15T14:45:55.258Z,24.30
2022-09-15T14:49:11.297Z,24.53
2022-09-15T14:52:19.302Z,24.45
2022-09-15T14:56:08.337Z,23.48
2022-09-15T15:00:18.085Z,22.59
2022-09-15T15:04:25.933Z,22.37
2022-09-15T15:07:56.885Z,23.08
2022-09-15T15:11:29.597Z,23.39
2022-09-15T15:14:18.384Z,23.52
2022-09-15T15:17:15.991Z,23.58
2022-09-15T15:21:07.349Z,23.66
2022-09-15T15:24:53.342Z,23.56
2022-09-15T15:28:25.169Z,23.52
2022-09-15T15:31:17.164Z,23.46
2022-09-15T15:34:26.906Z,23.44
2022-09-15T15:37:34.124Z,23.24
2022-09-15T15:40:38.353Z,23.18
2022-09-15T15:43:24.548Z,23.14
2022-09-15T15:46:04.445Z,23.07
2022-09-15T15:49:18.446Z,23.04
2022-09-15T15:52:06.311Z,23.01
2022-09-15T15:54:37.113Z,23.02
2022-09-15T15:57:31.092Z,22.98
2022-09-15T16:00:26.325Z,22.95
2022-09-15T16:02:57.760Z,22.94
2022-09-15T16:05:31.353Z,22.89
2022-09-15T16:08:06.039Z,22.88
2022-09-15T16:10:49.614Z,22.85
2022-09-15T16:13:24.934Z,22.87
2022-09-15T16:16:03.449Z,22.89
2022-09-15T16:18:34.847Z,22.91
2022-09-15T16:21:09.335Z,22.93
2022-09-15T16:24:09.828Z,22.98
2022-09-15T16:26:43.767Z,23.00
2022-09-15T16:29:26.141Z,22.99
2022-09-15T16:31:57.561Z,23.00
2022-09-15T16:34:28.395Z,23.01
2022-09-15T16:36:57.359Z,23.02
2022-09-15T16:39:37.201Z,23.04
2022-09-15T16:42:42.443Z,23.06
2022-09-15T16:45:53.936Z,23.05
2022-09-15T16:48:47.400Z,23.06
2022-09-15T16:51:31.442Z,23.02
2022-09-15T16:55:20.921Z,22.96
2022-09-15T16:57:55.652Z,22.89
2022-09-15T17:00:31.445Z,22.86
2022-09-15T17:03:08.937Z,22.85
2022-09-15T17:05:49.875Z,22.87
2022-09-15T17:08:33.707Z,22.87
2022-09-15T17:11:47.407Z,22.86
2022-09-15T17:14:21.965Z,22.86
2022-09-15T17:17:36.818Z,22.86
2022-09-15T17:20:09.232Z,22.81
2022-09-15T17:23:08.877Z,22.74
2022-09-15T17:25:49.175Z,22.71
2022-09-15T17:29:33.669Z,22.73
2022-09-15T17:32:20.957Z,22.73
2022-09-15T17:35:24.457Z,22.73
2022-09-15T17:38:58.816Z,22.71
2022-09-15T17:41:43.078Z,22.71
2022-09-15T17:44:46.578Z,22.72
2022-09-15T17:47:26.583Z,22.69
2022-09-15T17:50:00.860Z,22.67
2022-09-15T17:52:40.476Z,22.68
2022-09-15T17:55:44.043Z,22.69
2022-09-15T17:58:31.984Z,22.70
2022-09-15T18:01:24.165Z,22.71
2022-09-15T18:03:58.125Z,22.71
2022-09-15T18:06:35.955Z,22.70
2022-09-15T18:09:14.955Z,22.61
2022-09-15T18:12:04.483Z,22.56
2022-09-15T18:14:53.709Z,22.56
2022-09-15T18:17:28.826Z,22.52
2022-09-15T18:20:04.085Z,22.49
2022-09-15T18:22:44.219Z,22.46
2022-09-15T18:25:47.346Z,22.40
2022-09-15T18:28:35.453Z,22.30
2022-09-15T18:31:30.214Z,22.18
2022-09-15T18:34:05.282Z,22.06
2022-09-15T18:36:54.551Z,22.04
2022-09-15T18:39:30.878Z,22.09
2022-09-15T18:42:49.982Z,22.15
2022-09-15T18:45:49.870Z,22.18
2022-09-15T18:48:51.595Z,21.98
2022-09-15T18:52:16.560Z,21.94
2022-09-15T18:55:03.370Z,21.94
2022-09-15T18:58:22.747Z,21.80
2022-09-15T19:02:02.227Z,21.71
2022-09-15T19:04:37.240Z,21.58
2022-09-15T19:08:34.792Z,21.50
2022-09-15T19:11:52.574Z,21.16
2022-09-15T19:15:49.144Z,21.13
2022-09-15T19:18:46.588Z,21.20
2022-09-15T19:21:44.806Z,21.22
2022-09-15T19:24:47.532Z,21.28
2022-09-15T19:27:49.440Z,21.32
2022-09-15T19:30:36.193Z,21.39
2022-09-15T19:33:13.592Z,21.32
2022-09-15T19:35:45.857Z,21.37
2022-09-15T19:38:23.619Z,21.32
2022-09-15T19:41:11.610Z,21.09
2022-09-15T19:43:45.365Z,20.89
2022-09-15T19:46:21.680Z,20.89
2022-09-15T19:48:53.621Z,20.56
2022-09-15T19:51:22.284Z,20.30
2022-09-15T19:53:55.781Z,20.38
2022-09-15T19:56:28.533Z,20.48
2022-09-15T19:58:57.951Z,20.55
2022-09-15T20:01:34.257Z,20.71
2022-09-15T20:04:08.484Z,20.88
2022-09-15T20:06:42.948Z,21.06
2022-09-15T20:09:19.519Z,21.20
2022-09-15T20:11:56.910Z,21.32
2022-09-15T20:14:31.779Z,21.41
2022-09-15T20:17:03.317Z,21.50
2022-09-15T20:19:34.839Z,21.57
2022-09-15T20:22:34.552Z,21.63
2022-09-15T20:25:06.105Z,21.61
2022-09-15T20:27:43.396Z,21.57
2022-09-15T20:30:22.316Z,21.55
2022-09-15T20:32:56.122Z,21.54
2022-09-15T20:35:29.928Z,21.56
2022-09-15T20:38:12.128Z,21.39
2022-09-15T20:40:59.248Z,21.28
2022-09-15T20:43:41.715Z,21.24
2022-09-15T20:46:17.505Z,21.29
2022-09-15T20:48:46.804Z,21.24
2022-09-15T20:51:39.451Z,21.15
2022-09-15T20:54:25.865Z,21.08
2022-09-15T20:56:54.947Z,20.96
2022-09-15T20:59:23.604Z,20.95
2022-09-15T21:01:59.518Z,20.89
2022-09-15T21:04:30.957Z,20.82
2022-09-15T21:07:27.866Z,20.87
2022-09-15T21:09:58.921Z,20.86
2022-09-15T21:12:32.418Z,20.56
2022-09-15T21:15:05.773Z,20.33
2022-09-15T21:17:39.824Z,20.19
2022-09-15T21:20:08.686Z,20.21
2022-09-15T21:22:42.830Z,20.28
2022-09-15T21:25:17.042Z,20.37
2022-09-15T21:27:46.442Z,20.33
2022-09-15T21:30:17.938Z,20.19
2022-09-15T21:32:54.993Z,20.28
2022-09-15T21:35:47.629Z,20.39
2022-09-15T21:38:19.481Z,20.46
2022-09-15T21:40:50.931Z,20.47
2022-09-15T21:43:25.215Z,20.42
2022-09-15T21:46:07.100Z,20.36
2022-09-15T21:48:40.969Z,20.37
2022-09-15T21:51:16.837Z,20.37
2022-09-15T21:53:58.728Z,20.33
2022-09-15T21:56:53.594Z,20.27
2022-09-15T21:59:31.730Z,20.26
2022-09-15T22:02:49.947Z,20.22
2022-09-15T22:05:32.151Z,20.23
2022-09-15T22:08:05.106Z,20.21
2022-09-15T22:10:34.229Z,20.14
2022-09-15T22:13:26.031Z,20.03
2022-09-15T22:16:23.525Z,20.10
2022-09-15T22:18:55.580Z,20.14
2022-09-15T22:21:44.031Z,19.97
2022-09-15T22:24:45.278Z,19.74
2022-09-15T22:27:35.729Z,19.49
2022-09-15T22:30:31.798Z,19.40
2022-09-15T22:33:08.983Z,19.17
2022-09-15T22:35:44.630Z,19.07
2022-09-15T22:38:58.579Z,19.08
2022-09-15T22:41:50.305Z,19.33
2022-09-15T22:44:29.944Z,19.41
2022-09-15T22:47:40.926Z,19.37
2022-09-15T22:50:57.819Z,19.47
2022-09-15T22:53:47.130Z,19.63
2022-09-15T22:56:27.829Z,19.75
2022-09-15T22:59:04.952Z,19.78
2022-09-15T23:01:39.808Z,19.77
2022-09-15T23:04:11.640Z,19.70
2022-09-15T23:07:03.265Z,19.73
2022-09-15T23:09:39.680Z,19.79
2022-09-15T23:12:29.304Z,19.91
2022-09-15T23:15:06.799Z,20.06
2022-09-15T23:17:50.754Z,20.16
2022-09-15T23:20:29.050Z,20.22
2022-09-15T23:23:09.615Z,20.16
2022-09-15T23:26:00.731Z,20.02
2022-09-15T23:29:03.202Z,19.78
2022-09-15T23:31:57.529Z,19.59
2022-09-15T23:34:53.922Z,19.61
2022-09-15T23:37:30.390Z,19.72
2022-09-15T23:40:45.178Z,19.76
2022-09-15T23:43:30.645Z,19.67
2022-09-15T23:46:04.643Z,19.63
2022-09-15T23:48:46.931Z,19.58
2022-09-15T23:51:28.943Z,19.63
2022-09-15T23:54:04.752Z,19.66
2022-09-15T23:56:36.352Z,19.69
2022-09-15T23:59:12.046Z,19.73
